Time,TemperatureF,DewpointF,PressureIn,WindDirection,WindDirectionDegrees,WindSpeedMPH,WindSpeedGustMPH,Humidity,HourlyPrecipIn,Conditions,Clouds,dailyrainin,SoftwareType,DateUTC
2013-10-09 00:14:00,59.0,49.0,-100.00,East,96,6.0,10.0,71,0.00,,,0.00,,2013-10-09 04:14:00,
2013-10-09 00:24:00,58.0,49.0,-100.00,East,89,5.0,7.0,70,0.00,,,-99.99,,2013-10-09 04:24:00,
2013-10-09 00:34:00,58.0,49.0,-100.00,East,89,5.0,7.0,70,0.00,,,-99.99,,2013-10-09 04:34:00,
2013-10-09 00:54:00,58.0,49.0,-100.00,East,93,4.0,7.0,72,0.00,,,-99.99,,2013-10-09 04:54:00,
2013-10-09 01:04:00,58.0,49.0,-100.00,East,93,4.0,7.0,72,0.00,,,-99.99,,2013-10-09 05:04:00,
2013-10-09 01:22:00,58.0,49.0,-100.00,East,86,4.0,8.0,72,0.00,,,-99.99,,2013-10-09 05:22:00,
2013-10-09 01:34:00,58.0,49.0,-100.00,East,86,4.0,8.0,72,0.00,,,-99.99,,2013-10-09 05:34:00,
2013-10-09 01:52:00,58.0,49.0,-100.00,East,83,3.0,6.0,72,0.00,,,-99.99,,2013-10-09 05:52:00,
2013-10-09 02:12:00,58.0,49.0,-100.00,East,83,5.0,9.0,73,0.00,,,-99.99,,2013-10-09 06:12:00,
2013-10-09 02:22:00,58.0,49.0,-100.00,East,86,5.0,10.0,73,0.00,,,-99.99,,2013-10-09 06:22:00,
2013-10-09 02:33:00,58.0,49.0,-100.00,East,86,5.0,10.0,73,0.00,,,-99.99,,2013-10-09 06:33:00,
2013-10-09 02:52:00,58.0,49.0,-100.00,East,88,5.0,8.0,72,0.00,,,-99.99,,2013-10-09 06:52:00,
2013-10-09 03:12:00,58.0,49.0,-100.00,East,79,3.0,6.0,72,0.00,,,-99.99,,2013-10-09 07:12:00,
2013-10-09 03:22:00,58.0,49.0,-100.00,ENE,76,6.0,10.0,72,0.00,,,-99.99,,2013-10-09 07:22:00,
2013-10-09 03:32:00,58.0,49.0,-100.00,ENE,76,6.0,10.0,72,0.00,,,-99.99,,2013-10-09 07:32:00,
2013-10-09 03:42:00,58.0,49.0,-100.00,ENE,76,6.0,10.0,72,0.00,,,-99.99,,2013-10-09 07:42:00,
2013-10-09 03:52:00,58.0,49.0,-100.00,ENE,75,6.0,8.0,71,0.00,,,-99.99,,2013-10-09 07:52:00,
2013-10-09 04:12:00,58.0,49.0,-100.00,ENE,72,5.0,9.0,72,0.00,,,-99.99,,2013-10-09 08:12:00,
2013-10-09 04:23:00,58.0,49.0,-100.00,ENE,72,5.0,9.0,72,0.00,,,-99.99,,2013-10-09 08:23:00,
2013-10-09 04:42:00,58.0,49.0,-100.00,ENE,73,5.0,9.0,73,0.00,,,-99.99,,2013-10-09 08:42:00,
2013-10-09 04:53:00,57.0,49.0,-100.00,ENE,68,6.0,10.0,75,0.00,,,-99.99,,2013-10-09 08:53:00,
2013-10-09 05:11:00,57.0,49.0,-100.00,ENE,69,7.0,10.0,73,0.00,,,-99.99,,2013-10-09 09:11:00,
2013-10-09 05:22:00,57.0,50.0,-100.00,ENE,69,6.0,13.0,75,0.00,,,-99.99,,2013-10-09 09:22:00,
2013-10-09 05:33:00,57.0,50.0,-100.00,ENE,69,6.0,13.0,75,0.00,,,-99.99,,2013-10-09 09:33:00,
2013-10-09 05:53:00,57.0,49.0,-100.00,East,79,4.0,8.0,73,0.00,,,-99.99,,2013-10-09 09:53:00,
2013-10-09 06:13:00,58.0,50.0,-100.00,ENE,78,5.0,8.0,75,0.00,,,-99.99,,2013-10-09 10:13:00,
2013-10-09 06:23:00,58.0,49.0,-100.00,ENE,75,5.0,9.0,73,0.00,,,-99.99,,2013-10-09 10:23:00,
2013-10-09 06:33:00,58.0,49.0,-100.00,ENE,75,5.0,9.0,73,0.00,,,-99.99,,2013-10-09 10:33:00,
2013-10-09 06:43:00,58.0,49.0,-100.00,ENE,75,5.0,9.0,73,0.00,,,-99.99,,2013-10-09 10:43:00,
2013-10-09 06:53:00,58.0,49.0,-100.00,NE,55,5.0,8.0,71,0.00,,,-99.99,,2013-10-09 10:53:00,
2013-10-09 07:12:00,58.0,49.0,-100.00,East,79,6.0,10.0,74,0.00,,,-99.99,,2013-10-09 11:12:00,
2013-10-09 07:22:00,58.0,49.0,-100.00,East,79,6.0,10.0,74,0.00,,,-99.99,,2013-10-09 11:22:00,
2013-10-09 07:42:00,58.0,49.0,-100.00,East,83,6.0,9.0,72,0.00,,,-99.99,,2013-10-09 11:42:00,
2013-10-09 07:52:00,58.0,50.0,-100.00,ENE,75,6.0,13.0,76,0.00,,,-99.99,,2013-10-09 11:52:00,
2013-10-09 08:01:00,58.0,50.0,-100.00,ENE,75,6.0,13.0,76,0.00,,,-99.99,,2013-10-09 12:01:00,
2013-10-09 08:22:00,55.0,52.0,-100.00,East,85,6.0,12.0,91,0.00,,,-99.99,,2013-10-09 12:22:00,
2013-10-09 08:42:00,54.0,52.0,-100.00,East,85,7.0,11.0,94,0.00,,,-99.99,,2013-10-09 12:42:00,
2013-10-09 08:52:00,54.0,53.0,-100.00,East,85,8.0,13.0,94,-99.99,,,-99.99,,2013-10-09 12:52:00,
2013-10-09 09:12:00,54.0,52.0,-100.00,ENE,73,10.0,13.0,93,0.00,,,-99.99,,2013-10-09 13:12:00,
2013-10-09 09:22:00,55.0,53.0,-100.00,ENE,58,9.0,12.0,92,0.00,,,-99.99,,2013-10-09 13:22:00,
2013-10-09 09:33:00,55.0,53.0,-100.00,ENE,58,9.0,12.0,92,0.00,,,-99.99,,2013-10-09 13:33:00,
2013-10-09 09:42:00,55.0,53.0,-100.00,ENE,58,9.0,12.0,92,0.00,,,-99.99,,2013-10-09 13:42:00,
2013-10-09 09:52:00,55.0,53.0,-100.00,ENE,58,9.0,12.0,92,0.00,,,-99.99,,2013-10-09 13:52:00,
2013-10-09 10:22:00,56.0,53.0,-100.00,ENE,73,6.0,10.0,89,0.00,,,-99.99,,2013-10-09 14:22:00,
2013-10-09 10:52:00,57.0,53.0,-100.00,ENE,66,7.0,11.0,86,0.00,,,-99.99,,2013-10-09 14:52:00,
2013-10-09 11:11:00,57.0,53.0,-100.00,East,88,7.0,13.0,85,0.00,,,-99.99,,2013-10-09 15:11:00,
2013-10-09 11:22:00,57.0,53.0,-100.00,East,88,7.0,13.0,85,0.00,,,-99.99,,2013-10-09 15:22:00,
2013-10-09 11:53:00,58.0,53.0,-100.00,ENE,61,10.0,16.0,82,0.00,,,-99.99,,2013-10-09 15:53:00,
2013-10-09 12:03:00,58.0,53.0,-100.00,ENE,61,10.0,16.0,82,0.00,,,-99.99,,2013-10-09 16:03:00,
2013-10-09 12:24:00,59.0,53.0,-100.00,ENE,61,7.0,13.0,80,0.00,,,-99.99,,2013-10-09 16:24:00,
2013-10-09 12:33:00,59.0,53.0,-100.00,ENE,61,7.0,13.0,80,0.00,,,-99.99,,2013-10-09 16:33:00,
2013-10-09 12:42:00,59.0,53.0,-100.00,ENE,61,7.0,13.0,80,0.00,,,-99.99,,2013-10-09 16:42:00,
2013-10-09 12:53:00,60.0,54.0,-100.00,ENE,72,8.0,15.0,79,0.00,,,-99.99,,2013-10-09 16:53:00,
2013-10-09 13:12:00,61.0,53.0,-100.00,East,85,8.0,11.0,77,0.00,,,-99.99,,2013-10-09 17:12:00,
2013-10-09 13:22:00,61.0,53.0,-100.00,East,83,8.0,12.0,77,0.00,,,-99.99,,2013-10-09 17:22:00,
2013-10-09 13:33:00,61.0,53.0,-100.00,East,83,8.0,12.0,77,0.00,,,-99.99,,2013-10-09 17:33:00,
2013-10-09 13:42:00,61.0,53.0,-100.00,East,83,8.0,12.0,77,0.00,,,-99.99,,2013-10-09 17:42:00,
2013-10-09 13:52:00,61.0,54.0,-100.00,East,86,8.0,13.0,77,0.00,,,-99.99,,2013-10-09 17:52:00,
2013-10-09 14:02:00,61.0,54.0,-100.00,East,86,8.0,13.0,77,0.00,,,-99.99,,2013-10-09 18:02:00,
2013-10-09 14:22:00,61.0,54.0,-100.00,East,85,7.0,10.0,77,0.00,,,-99.99,,2013-10-09 18:22:00,
2013-10-09 14:32:00,61.0,54.0,-100.00,East,85,7.0,10.0,77,0.00,,,-99.99,,2013-10-09 18:32:00,
2013-10-09 14:42:00,61.0,54.0,-100.00,East,85,7.0,10.0,77,0.00,,,-99.99,,2013-10-09 18:42:00,
2013-10-09 14:52:00,61.0,53.0,-100.00,ENE,76,7.0,12.0,76,0.00,,,-99.99,,2013-10-09 18:52:00,
2013-10-09 15:02:00,61.0,53.0,-100.00,ENE,76,7.0,12.0,76,0.00,,,-99.99,,2013-10-09 19:02:00,
2013-10-09 15:20:00,59.0,54.0,-100.00,ENE,73,7.0,12.0,84,0.00,,,-99.99,,2013-10-09 19:20:00,
2013-10-09 15:22:00,60.0,53.0,-100.00,ENE,76,6.0,9.0,77,0.00,,,-99.99,,2013-10-09 19:22:00,
2013-10-09 15:42:00,60.0,53.0,-100.00,East,79,9.0,14.0,78,0.00,,,-99.99,,2013-10-09 19:42:00,
2013-10-09 15:53:00,59.0,54.0,-100.00,ENE,73,7.0,12.0,84,0.00,,,-99.99,,2013-10-09 19:53:00,
2013-10-09 16:02:00,59.0,54.0,-100.00,ENE,73,7.0,12.0,84,0.00,,,-99.99,,2013-10-09 20:02:00,
2013-10-09 16:11:00,59.0,54.0,-100.00,ENE,73,7.0,12.0,84,0.00,,,-99.99,,2013-10-09 20:11:00,
2013-10-09 16:52:00,58.0,54.0,-100.00,ENE,69,10.0,17.0,86,0.00,,,-99.99,,2013-10-09 20:52:00,
2013-10-09 17:03:00,58.0,54.0,-100.00,ENE,69,10.0,17.0,86,0.00,,,-99.99,,2013-10-09 21:03:00,
2013-10-09 17:22:00,60.0,54.0,-100.00,ENE,64,11.0,21.0,82,0.00,,,-99.99,,2013-10-09 21:22:00,
2013-10-09 17:34:00,60.0,54.0,-100.00,ENE,64,11.0,21.0,82,0.00,,,-99.99,,2013-10-09 21:34:00,
2013-10-09 17:44:00,60.0,54.0,-100.00,ENE,64,11.0,21.0,82,0.00,,,-99.99,,2013-10-09 21:44:00,
2013-10-09 17:54:00,59.0,54.0,-100.00,ENE,78,9.0,13.0,82,0.00,,,-99.99,,2013-10-09 21:54:00,
2013-10-09 18:13:00,59.0,53.0,-100.00,East,79,8.0,13.0,83,0.00,,,-99.99,,2013-10-09 22:13:00,
2013-10-09 18:24:00,59.0,53.0,-100.00,East,79,8.0,13.0,83,0.00,,,-99.99,,2013-10-09 22:24:00,
2013-10-09 18:43:00,58.0,54.0,-100.00,ENE,71,8.0,15.0,85,0.00,,,-99.99,,2013-10-09 22:43:00,
2013-10-09 18:53:00,58.0,54.0,-100.00,ENE,68,11.0,17.0,86,0.00,,,-99.99,,2013-10-09 22:53:00,
2013-10-09 19:03:00,58.0,54.0,-100.00,ENE,68,11.0,17.0,86,0.00,,,-99.99,,2013-10-09 23:03:00,
2013-10-09 19:22:00,58.0,54.0,-100.00,ENE,78,6.0,11.0,87,0.00,,,-99.99,,2013-10-09 23:22:00,
2013-10-09 19:34:00,58.0,54.0,-100.00,ENE,78,6.0,11.0,87,0.00,,,-99.99,,2013-10-09 23:34:00,
2013-10-09 19:43:00,58.0,54.0,-100.00,ENE,78,6.0,11.0,87,0.00,,,-99.99,,2013-10-09 23:43:00,
2013-10-09 19:53:00,57.0,53.0,-100.00,ENE,76,9.0,16.0,85,0.00,,,-99.99,,2013-10-09 23:53:00,
2013-10-09 20:12:00,57.0,54.0,-100.00,ENE,73,7.0,14.0,89,0.00,,,-99.99,,2013-10-10 00:12:00,
2013-10-09 20:22:00,57.0,54.0,-100.00,ENE,73,7.0,14.0,89,0.00,,,-99.99,,2013-10-10 00:22:00,
2013-10-09 20:40:00,56.0,54.0,-100.00,ENE,62,11.0,19.0,91,0.00,,,-99.99,,2013-10-10 00:40:00,
2013-10-09 20:52:00,56.0,54.0,-100.00,ENE,69,9.0,17.0,90,0.00,,,-99.99,,2013-10-10 00:52:00,
2013-10-09 21:11:00,56.0,54.0,-100.00,ENE,62,11.0,19.0,91,0.00,,,-99.99,,2013-10-10 01:11:00,
2013-10-09 21:21:00,56.0,54.0,-100.00,ENE,62,11.0,19.0,91,0.00,,,-99.99,,2013-10-10 01:21:00,
2013-10-09 21:32:00,56.0,54.0,-100.00,ENE,62,11.0,19.0,91,0.00,,,-99.99,,2013-10-10 01:32:00,
2013-10-09 22:12:00,56.0,53.0,-100.00,ENE,61,11.0,17.0,91,0.00,,,-99.99,,2013-10-10 02:12:00,
2013-10-09 22:20:00,55.0,54.0,-100.00,NE,52,14.0,18.0,95,0.00,,,-99.99,,2013-10-10 02:20:00,
2013-10-09 22:22:00,56.0,53.0,-100.00,ENE,61,11.0,17.0,91,0.00,,,-99.99,,2013-10-10 02:22:00,
2013-10-09 23:12:00,55.0,54.0,-100.00,NE,52,14.0,18.0,95,0.00,,,-99.99,,2013-10-10 03:12:00,
2013-10-09 23:55:00,55.0,53.0,-100.00,NE,54,13.0,18.0,93,0.00,,,-99.99,,2013-10-10 03:55:00,